Kenansville, Florida
Current Conditions -  °F | °C
As of 11:53 PM on Monday 22 Dec 2014 (Local Time) from KMLB Reporting Station
Clear Clear  
Wind Chill: 70°   Ceiling: Unl
Heat Index: 70°   Visibility: 10mi
Dew Point: 67°   Wind: 7mph
Humidity: 90%   Direction: 190°S
Pressure: 29.96"   Gusts: NA
Location:  27.88°N, 80.99°W
Report Text: KMLB 230453Z AUTO 19006KT 10SM CLR 21/19 A2996 RMK AO2 SLP144 T02110194 402830189
Loading
Personal Weather Stations






























Interactive Weather Map New forecast layout! Learn more

10-Day Weather Forecast

Advertisements
Track Severe Weather on mobile